createdAt,value
2023-04-02T00:00:17.396Z,9.57
2023-04-02T00:03:22.391Z,9.57
2023-04-02T00:06:33.942Z,9.53
2023-04-02T00:09:38.092Z,9.49
2023-04-02T00:12:40.691Z,9.46
2023-04-02T00:15:46.888Z,9.40
2023-04-02T00:18:54.497Z,9.32
2023-04-02T00:21:58.966Z,9.31
2023-04-02T00:25:07.805Z,9.31
2023-04-02T00:28:18.948Z,9.30
2023-04-02T00:31:21.800Z,9.34
2023-04-02T00:34:35.121Z,9.32
2023-04-02T00:37:42.106Z,9.33
2023-04-02T00:40:46.597Z,9.30
2023-04-02T00:43:52.524Z,9.32
2023-04-02T00:46:58.487Z,9.33
2023-04-02T00:50:07.460Z,9.34
2023-04-02T00:53:22.244Z,9.39
2023-04-02T00:56:31.242Z,9.38
2023-04-02T00:59:42.936Z,9.37
2023-04-02T01:03:17.237Z,9.36
2023-04-02T01:06:20.983Z,9.37
2023-04-02T01:10:11.513Z,9.40
2023-04-02T01:13:44.802Z,9.44
2023-04-02T01:16:50.500Z,9.42
2023-04-02T01:20:11.840Z,9.47
2023-04-02T01:23:25.315Z,9.47
2023-04-02T01:26:36.989Z,9.47
2023-04-02T01:29:46.973Z,9.48
2023-04-02T01:32:50.173Z,9.47
2023-04-02T01:36:05.819Z,9.47
2023-04-02T01:39:34.620Z,9.49
2023-04-02T01:42:49.562Z,9.50
2023-04-02T01:45:52.617Z,9.54
2023-04-02T01:48:56.770Z,9.53
2023-04-02T01:51:59.837Z,9.52
2023-04-02T01:55:04.600Z,9.51
2023-04-02T01:58:08.958Z,9.48
2023-04-02T02:01:18.781Z,9.44
2023-04-02T02:04:21.987Z,9.33
2023-04-02T02:07:26.148Z,9.19
2023-04-02T02:10:36.044Z,9.00
2023-04-02T02:16:42.168Z,8.85
2023-04-02T02:19:51.990Z,8.85
2023-04-02T02:22:56.400Z,8.84
2023-04-02T02:25:59.104Z,8.91
2023-04-02T02:29:07.015Z,8.90
2023-04-02T02:32:13.141Z,8.90
2023-04-02T02:35:20.672Z,8.88
2023-04-02T02:38:37.252Z,8.87
2023-04-02T02:41:47.257Z,8.85
2023-04-02T02:44:52.347Z,8.85
2023-04-02T02:47:56.681Z,8.87
2023-04-02T02:51:01.488Z,8.88
2023-04-02T02:54:05.646Z,8.90
2023-04-02T02:57:16.372Z,8.91
2023-04-02T03:00:21.039Z,8.94
2023-04-02T03:03:28.408Z,8.92
2023-04-02T03:06:31.513Z,8.92
2023-04-02T03:09:55.904Z,8.93
2023-04-02T03:13:24.666Z,8.91
2023-04-02T03:16:45.615Z,8.89
2023-04-02T03:19:58.603Z,8.92
2023-04-02T03:23:35.474Z,8.92
2023-04-02T03:26:43.053Z,8.92
2023-04-02T03:29:58.765Z,8.92
2023-04-02T03:33:06.738Z,8.94
2023-04-02T03:36:43.833Z,8.94
2023-04-02T03:39:59.466Z,8.93
2023-04-02T03:43:02.692Z,8.89
2023-04-02T03:46:40.852Z,8.90
2023-04-02T03:49:52.567Z,8.93
2023-04-02T03:52:56.970Z,8.96
2023-04-02T03:56:01.554Z,8.84
2023-04-02T03:59:21.120Z,8.82
2023-04-02T04:02:34.943Z,8.80
2023-04-02T04:05:48.359Z,8.81
2023-04-02T04:08:55.658Z,8.81
2023-04-02T04:12:20.710Z,8.82
2023-04-02T04:15:36.709Z,8.82
2023-04-02T04:19:10.985Z,8.81
2023-04-02T04:22:32.030Z,8.81
2023-04-02T04:25:35.425Z,8.76
2023-04-02T04:28:58.540Z,8.76
2023-04-02T04:32:27.536Z,8.71
2023-04-02T04:35:39.450Z,8.70
2023-04-02T04:38:55.285Z,8.56
2023-04-02T04:42:01.123Z,8.55
2023-04-02T04:45:28.045Z,8.56
2023-04-02T04:48:46.437Z,8.56
2023-04-02T04:51:57.546Z,8.57
2023-04-02T04:55:00.884Z,8.58
2023-04-02T04:58:15.099Z,8.59
2023-04-02T05:01:40.728Z,8.59
2023-04-02T05:04:50.477Z,8.59
2023-04-02T05:08:06.643Z,8.63
2023-04-02T05:11:19.464Z,8.65
2023-04-02T05:14:32.172Z,8.67
2023-04-02T05:17:36.097Z,8.73
2023-04-02T05:20:51.088Z,8.74
2023-04-02T05:23:59.168Z,8.73
2023-04-02T05:27:18.967Z,8.73
2023-04-02T05:30:24.906Z,8.72
2023-04-02T05:33:30.023Z,8.75
2023-04-02T05:36:33.390Z,8.78
2023-04-02T05:39:36.639Z,8.84
2023-04-02T05:42:43.481Z,8.87
2023-04-02T05:45:54.529Z,8.93
2023-04-02T05:49:00.193Z,8.97
2023-04-02T05:52:04.840Z,9.02
2023-04-02T05:55:13.471Z,9.08
2023-04-02T05:58:45.343Z,9.16
2023-04-02T06:02:04.698Z,9.26
2023-04-02T06:05:21.614Z,9.33
2023-04-02T06:08:36.527Z,9.44
2023-04-02T06:11:48.082Z,9.54
2023-04-02T06:14:51.560Z,9.55
2023-04-02T06:18:18.750Z,9.62
2023-04-02T06:21:22.332Z,9.67
2023-04-02T06:24:29.308Z,9.79
2023-04-02T06:27:34.306Z,9.85
2023-04-02T06:30:42.484Z,9.87
2023-04-02T06:33:45.129Z,9.96
2023-04-02T06:36:51.521Z,9.94
2023-04-02T06:39:55.353Z,9.99
2023-04-02T06:43:01.364Z,10.02
2023-04-02T06:46:33.103Z,10.07
2023-04-02T06:50:14.143Z,10.02
2023-04-02T06:53:32.055Z,10.19
2023-04-02T06:56:52.911Z,10.31
2023-04-02T06:59:55.811Z,10.39
2023-04-02T07:03:02.917Z,10.40
2023-04-02T07:06:05.908Z,10.36
2023-04-02T07:09:09.431Z,10.33
2023-04-02T07:12:13.995Z,10.42
2023-04-02T07:15:19.347Z,10.48
2023-04-02T07:18:30.424Z,10.56
2023-04-02T07:21:33.741Z,10.62
2023-04-02T07:24:36.588Z,10.69
2023-04-02T07:27:39.265Z,10.70
2023-04-02T07:30:42.304Z,10.72
2023-04-02T07:33:45.716Z,10.68
2023-04-02T07:36:49.245Z,10.73
2023-04-02T07:39:52.056Z,10.80
2023-04-02T07:42:54.606Z,10.91
2023-04-02T07:45:57.296Z,11.01
2023-04-02T07:48:59.787Z,11.14
2023-04-02T07:52:02.490Z,11.24
2023-04-02T07:55:05.450Z,11.42
2023-04-02T07:58:08.825Z,11.50
2023-04-02T08:01:18.491Z,11.74
2023-04-02T08:04:23.210Z,11.79
2023-04-02T08:07:27.625Z,11.82
2023-04-02T08:10:30.973Z,11.97
2023-04-02T08:13:33.845Z,12.10
2023-04-02T08:16:54.253Z,12.29
2023-04-02T08:20:01.062Z,12.26
2023-04-02T08:23:04.401Z,12.35
2023-04-02T08:26:07.137Z,12.46
2023-04-02T08:29:09.832Z,12.61
2023-04-02T08:32:15.712Z,12.82
2023-04-02T08:35:18.534Z,12.99
2023-04-02T08:38:22.023Z,13.38
2023-04-02T08:41:31.110Z,13.49
2023-04-02T08:44:53.917Z,13.66
2023-04-02T08:47:59.990Z,13.90
2023-04-02T08:51:04.896Z,13.84
2023-04-02T08:54:27.961Z,14.16
2023-04-02T08:57:39.143Z,14.33
2023-04-02T09:00:48.378Z,14.50
2023-04-02T09:03:55.711Z,14.87
2023-04-02T09:07:00.815Z,14.97
2023-04-02T09:10:04.498Z,15.09
2023-04-02T09:13:18.332Z,14.98
2023-04-02T09:16:34.249Z,14.80
2023-04-02T09:19:41.012Z,14.94
2023-04-02T09:22:46.302Z,14.75
2023-04-02T09:26:03.661Z,15.09
2023-04-02T09:29:13.514Z,15.23
2023-04-02T09:32:37.810Z,15.74
2023-04-02T09:35:49.523Z,15.92
2023-04-02T09:39:07.085Z,16.45
2023-04-02T09:42:36.484Z,16.98
2023-04-02T09:45:41.288Z,16.75
2023-04-02T09:48:49.801Z,16.44
2023-04-02T09:52:11.518Z,18.22
2023-04-02T09:55:27.285Z,20.35
2023-04-02T09:58:30.156Z,21.22
2023-04-02T10:01:38.924Z,21.89
2023-04-02T10:04:45.502Z,22.18
2023-04-02T10:07:53.359Z,22.52
2023-04-02T10:10:59.871Z,22.39
2023-04-02T10:14:12.120Z,21.02
2023-04-02T10:17:21.703Z,20.15
2023-04-02T10:20:27.577Z,20.37
2023-04-02T10:23:31.641Z,20.77
2023-04-02T10:26:34.048Z,20.83
2023-04-02T10:30:09.587Z,19.81
2023-04-02T10:33:21.545Z,19.62
2023-04-02T10:36:46.854Z,18.60
2023-04-02T10:39:58.676Z,19.91
2023-04-02T10:43:24.468Z,19.88
2023-04-02T10:46:52.020Z,20.07
2023-04-02T10:50:11.400Z,19.06
2023-04-02T10:53:26.965Z,18.45
2023-04-02T10:56:40.797Z,17.92
2023-04-02T11:00:16.913Z,17.07
2023-04-02T11:03:40.327Z,16.64
2023-04-02T11:06:51.813Z,16.06
2023-04-02T11:09:58.419Z,15.88
2023-04-02T11:13:22.922Z,15.81
2023-04-02T11:16:27.304Z,15.50
2023-04-02T11:19:32.369Z,15.29
2023-04-02T11:22:35.360Z,15.30
2023-04-02T11:25:37.980Z,15.08
2023-04-02T11:28:41.346Z,15.16
2023-04-02T11:31:45.652Z,14.91
2023-04-02T11:34:53.806Z,14.61
2023-04-02T11:38:11.601Z,14.66
2023-04-02T11:41:14.351Z,14.85
2023-04-02T11:44:24.336Z,14.93
2023-04-02T11:47:28.753Z,14.93
2023-04-02T11:50:35.966Z,14.95
2023-04-02T11:53:42.691Z,14.87
2023-04-02T11:56:53.096Z,14.80
2023-04-02T12:00:21.987Z,14.88
2023-04-02T12:03:52.733Z,15.03
2023-04-02T12:07:20.049Z,15.11
2023-04-02T12:10:34.803Z,15.27
2023-04-02T12:13:40.486Z,15.46
2023-04-02T12:16:43.307Z,15.74
2023-04-02T12:19:52.524Z,15.85
2023-04-02T12:22:56.773Z,15.04
2023-04-02T12:26:08.527Z,15.04
2023-04-02T12:29:28.593Z,14.58
2023-04-02T12:32:31.555Z,14.95
2023-04-02T12:35:36.661Z,14.71
2023-04-02T12:38:54.179Z,14.27
2023-04-02T12:41:57.428Z,14.31
2023-04-02T12:45:01.294Z,14.19
2023-04-02T12:48:06.181Z,13.71
2023-04-02T12:51:10.731Z,13.64
2023-04-02T12:54:17.629Z,13.57
2023-04-02T12:57:26.678Z,13.68
2023-04-02T13:00:31.540Z,13.83
2023-04-02T13:03:33.963Z,13.73
2023-04-02T13:06:37.091Z,13.99
2023-04-02T13:09:47.786Z,13.96
2023-04-02T13:12:56.623Z,13.77
2023-04-02T13:16:07.788Z,13.32
2023-04-02T13:19:21.102Z,13.50
2023-04-02T13:22:31.995Z,13.67
2023-04-02T13:25:39.652Z,13.53
2023-04-02T13:28:42.219Z,13.45
2023-04-02T13:31:45.204Z,13.36
2023-04-02T13:34:47.616Z,13.36
2023-04-02T13:37:50.414Z,13.61
2023-04-02T13:40:52.805Z,13.31
2023-04-02T13:43:57.425Z,13.24
2023-04-02T13:47:00.836Z,13.11
2023-04-02T13:50:03.782Z,13.07
2023-04-02T13:53:10.638Z,13.17
2023-04-02T13:56:13.714Z,13.14
2023-04-02T13:59:16.586Z,12.99
2023-04-02T14:02:24.112Z,13.33
2023-04-02T14:05:55.254Z,13.56
2023-04-02T14:09:14.036Z,13.55
2023-04-02T14:12:19.930Z,13.70
2023-04-02T14:15:28.166Z,13.61
2023-04-02T14:18:36.727Z,13.71
2023-04-02T14:22:06.628Z,13.78
2023-04-02T14:25:21.663Z,13.46
2023-04-02T14:29:03.413Z,12.64
2023-04-02T14:32:29.128Z,12.69
2023-04-02T14:35:38.221Z,11.83
2023-04-02T14:39:08.592Z,11.61
2023-04-02T14:42:16.709Z,11.26
2023-04-02T14:45:53.439Z,11.01
2023-04-02T14:49:07.221Z,10.91
2023-04-02T14:52:16.081Z,10.84
2023-04-02T14:55:31.360Z,10.79
2023-04-02T14:58:42.893Z,10.77
2023-04-02T15:01:49.292Z,10.78
2023-04-02T15:05:01.182Z,10.77
2023-04-02T15:08:04.088Z,10.78
2023-04-02T15:11:32.453Z,10.79
2023-04-02T15:14:40.327Z,10.77
2023-04-02T15:17:43.025Z,10.71
2023-04-02T15:21:31.428Z,10.67
2023-04-02T15:24:43.437Z,10.70
2023-04-02T15:28:24.296Z,10.64
2023-04-02T15:31:28.314Z,10.68
2023-04-02T15:34:35.534Z,10.70
2023-04-02T15:37:59.979Z,10.73
2023-04-02T15:41:23.621Z,10.75
2023-04-02T15:44:26.731Z,10.74
2023-04-02T15:47:54.236Z,10.71
2023-04-02T15:51:23.794Z,10.66
2023-04-02T15:54:28.932Z,10.61
2023-04-02T15:58:02.508Z,10.60
2023-04-02T16:01:33.690Z,10.58
2023-04-02T16:05:01.462Z,10.57
2023-04-02T16:08:33.591Z,10.56
2023-04-02T16:11:36.846Z,10.55
2023-04-02T16:14:41.263Z,10.53
2023-04-02T16:17:49.149Z,10.51
2023-04-02T16:20:54.532Z,10.50
2023-04-02T16:23:57.377Z,10.52
2023-04-02T16:27:32.057Z,10.49
2023-04-02T16:30:51.306Z,10.47
2023-04-02T16:34:41.446Z,10.42
2023-04-02T16:37:56.334Z,10.41
2023-04-02T16:41:31.349Z,10.38
2023-04-02T16:45:03.104Z,10.36
2023-04-02T16:48:25.856Z,10.30
2023-04-02T16:51:49.047Z,10.31
2023-04-02T16:55:12.982Z,10.27
2023-04-02T16:58:43.775Z,10.27
2023-04-02T17:01:59.820Z,10.23
2023-04-02T17:05:12.676Z,10.23
2023-04-02T17:08:24.982Z,10.25
2023-04-02T17:11:49.577Z,10.23
2023-04-02T17:15:24.804Z,10.26
2023-04-02T17:18:32.952Z,10.26
2023-04-02T17:21:36.128Z,10.27
2023-04-02T17:24:51.585Z,10.25
2023-04-02T17:27:57.892Z,10.21
2023-04-02T17:31:01.749Z,10.22
2023-04-02T17:34:14.062Z,10.09
2023-04-02T17:37:27.705Z,9.99
2023-04-02T17:40:48.747Z,9.91
2023-04-02T17:44:02.765Z,9.82
2023-04-02T17:47:40.826Z,9.75
2023-04-02T17:51:01.708Z,9.68
2023-04-02T17:54:27.755Z,9.62
2023-04-02T17:57:39.625Z,9.56
2023-04-02T18:00:51.493Z,9.51
2023-04-02T18:04:02.708Z,9.46
2023-04-02T18:07:19.893Z,9.43
2023-04-02T18:10:22.706Z,9.37
2023-04-02T18:13:25.363Z,9.33
2023-04-02T18:16:45.271Z,9.30
2023-04-02T18:19:53.939Z,9.25
2023-04-02T18:23:00.064Z,9.19
2023-04-02T18:26:24.078Z,9.15
2023-04-02T18:29:42.192Z,9.11
2023-04-02T18:33:30.974Z,9.04
2023-04-02T18:37:00.998Z,9.02
2023-04-02T18:40:22.371Z,9.01
2023-04-02T18:43:34.042Z,9.00
2023-04-02T18:46:50.426Z,8.96
2023-04-02T18:50:35.747Z,8.86
2023-04-02T18:53:38.635Z,8.85
2023-04-02T18:56:42.838Z,8.75
2023-04-02T18:59:51.950Z,8.69
2023-04-02T19:03:02.043Z,8.62
2023-04-02T19:06:09.372Z,8.61
2023-04-02T19:09:18.975Z,8.57
2023-04-02T19:12:23.614Z,8.53
2023-04-02T19:15:50.917Z,8.47
2023-04-02T19:19:11.819Z,8.44
2023-04-02T19:22:38.932Z,8.45
2023-04-02T19:25:59.018Z,8.45
2023-04-02T19:29:01.702Z,8.38
2023-04-02T19:32:22.474Z,8.35
2023-04-02T19:35:34.764Z,8.27
2023-04-02T19:39:04.814Z,8.26
2023-04-02T19:42:15.802Z,8.23
2023-04-02T19:45:32.171Z,8.20
2023-04-02T19:48:57.915Z,8.11
2023-04-02T19:52:00.595Z,8.08
2023-04-02T19:55:03.697Z,8.00
2023-04-02T19:58:17.654Z,7.97
2023-04-02T20:01:22.879Z,7.92
2023-04-02T20:04:25.633Z,7.85
2023-04-02T20:07:30.970Z,7.79
2023-04-02T20:10:33.763Z,7.77
2023-04-02T20:13:36.235Z,7.74
2023-04-02T20:16:39.335Z,7.71
2023-04-02T20:19:42.090Z,7.68
2023-04-02T20:22:44.823Z,7.64
2023-04-02T20:25:54.936Z,7.61
2023-04-02T20:28:57.615Z,7.57
2023-04-02T20:31:59.978Z,7.55
2023-04-02T20:35:03.408Z,7.57
2023-04-02T20:38:08.068Z,7.55
2023-04-02T20:41:11.287Z,7.51
2023-04-02T20:44:13.876Z,7.51
2023-04-02T20:47:16.800Z,7.50
2023-04-02T20:50:19.213Z,7.46
2023-04-02T20:53:22.081Z,7.44
2023-04-02T20:56:24.790Z,7.41
2023-04-02T20:59:27.404Z,7.38
2023-04-02T21:02:31.709Z,7.31
2023-04-02T21:05:34.586Z,7.25
2023-04-02T21:08:37.111Z,7.22
2023-04-02T21:11:40.588Z,7.16
2023-04-02T21:14:42.978Z,7.14
2023-04-02T21:17:45.722Z,7.10
2023-04-02T21:20:59.984Z,7.05
2023-04-02T21:24:05.515Z,7.06
2023-04-02T21:27:07.843Z,7.08
2023-04-02T21:30:11.299Z,7.06
2023-04-02T21:33:13.813Z,7.06
2023-04-02T21:36:25.350Z,7.06
2023-04-02T21:39:27.851Z,7.07
2023-04-02T21:42:30.673Z,7.11
2023-04-02T21:45:33.121Z,7.05
2023-04-02T21:48:36.305Z,7.05
2023-04-02T21:51:41.265Z,7.06
2023-04-02T21:54:43.924Z,7.07
2023-04-02T21:57:46.392Z,7.11
2023-04-02T22:00:49.150Z,7.05
2023-04-02T22:03:52.103Z,7.06
2023-04-02T22:06:54.978Z,7.04
2023-04-02T22:09:57.877Z,7.05
2023-04-02T22:13:00.220Z,7.00
2023-04-02T22:16:06.799Z,6.98
2023-04-02T22:19:15.299Z,6.95
2023-04-02T22:22:17.966Z,6.91
2023-04-02T22:25:20.466Z,6.87
2023-04-02T22:28:23.391Z,6.88
2023-04-02T22:31:28.370Z,6.87
2023-04-02T22:34:31.463Z,6.88
2023-04-02T22:37:34.044Z,6.87
2023-04-02T22:40:37.308Z,6.83
2023-04-02T22:43:41.109Z,6.80
2023-04-02T22:46:43.914Z,6.79
2023-04-02T22:49:46.401Z,6.78
2023-04-02T22:52:49.298Z,6.71
2023-04-02T22:55:52.919Z,6.70
2023-04-02T22:58:55.901Z,6.68
2023-04-02T23:02:00.403Z,6.65
2023-04-02T23:05:03.871Z,6.64
2023-04-02T23:08:07.060Z,6.57
2023-04-02T23:11:14.491Z,6.50
2023-04-02T23:14:16.903Z,6.52
2023-04-02T23:17:20.140Z,6.48
2023-04-02T23:20:22.734Z,6.42
2023-04-02T23:23:26.372Z,6.32
2023-04-02T23:26:31.565Z,6.21
2023-04-02T23:29:34.275Z,6.15
2023-04-02T23:32:36.617Z,6.07
2023-04-02T23:35:39.301Z,6.02
2023-04-02T23:38:41.757Z,5.94
2023-04-02T23:41:44.448Z,5.93
2023-04-02T23:44:46.894Z,5.89
2023-04-02T23:47:49.785Z,5.88
2023-04-02T23:50:52.205Z,5.80
2023-04-02T23:53:58.008Z,5.77
2023-04-02T23:57:00.445Z,5.77
